createdAt,value
2022-10-09T00:01:13.005Z,95790.63
2022-10-09T00:04:21.460Z,95788.66
2022-10-09T00:07:29.735Z,95785.50
2022-10-09T00:10:43.159Z,95788.53
2022-10-09T00:13:52.645Z,95785.03
2022-10-09T00:17:02.854Z,95775.28
2022-10-09T00:20:12.659Z,95789.53
2022-10-09T00:23:21.173Z,95785.19
2022-10-09T00:26:30.329Z,95790.91
2022-10-09T00:29:38.964Z,95782.16
2022-10-09T00:32:49.150Z,95780.03
2022-10-09T00:35:57.779Z,95781.06
2022-10-09T00:39:06.001Z,95776.44
2022-10-09T00:42:15.465Z,95779.56
2022-10-09T00:45:24.517Z,95779.28
2022-10-09T00:48:34.970Z,95766.22
2022-10-09T00:51:47.471Z,95772.56
2022-10-09T00:54:58.144Z,95766.09
2022-10-09T00:58:07.473Z,95762.97
2022-10-09T01:01:15.833Z,95766.13
2022-10-09T01:04:26.039Z,95760.31
2022-10-09T01:07:48.738Z,95753.75
2022-10-09T01:11:09.098Z,95748.28
2022-10-09T01:14:25.837Z,95750.41
2022-10-09T01:17:42.962Z,95747.94
2022-10-09T01:20:59.965Z,95745.16
2022-10-09T01:24:26.984Z,95743.66
2022-10-09T01:27:39.355Z,95739.69
2022-10-09T01:30:49.176Z,95733.38
2022-10-09T01:33:59.713Z,95734.88
2022-10-09T01:37:10.339Z,95732.91
2022-10-09T01:40:19.734Z,95726.63
2022-10-09T01:43:29.833Z,95725.34
2022-10-09T01:46:38.182Z,95731.97
2022-10-09T01:49:56.205Z,95717.22
2022-10-09T01:53:12.537Z,95714.38
2022-10-09T01:56:25.527Z,95715.22
2022-10-09T01:59:40.843Z,95719.22
2022-10-09T02:02:51.940Z,95722.19
2022-10-09T02:06:03.021Z,95715.22
2022-10-09T02:09:16.669Z,95706.59
2022-10-09T02:13:12.782Z,95700.66
2022-10-09T02:16:34.743Z,95694.84
2022-10-09T02:19:51.462Z,95692.88
2022-10-09T02:23:02.867Z,95685.25
2022-10-09T02:26:13.678Z,95684.25
2022-10-09T02:29:22.859Z,95679.63
2022-10-09T02:32:32.704Z,95686.38
2022-10-09T02:35:41.697Z,95672.66
2022-10-09T02:38:49.919Z,95672.66
2022-10-09T02:41:58.173Z,95678.44
2022-10-09T02:45:08.591Z,95670.47
2022-10-09T02:48:18.284Z,95670.16
2022-10-09T02:51:26.936Z,95669.47
2022-10-09T02:54:35.220Z,95672.28
2022-10-09T02:57:43.494Z,95660.69
2022-10-09T03:00:52.592Z,95661.19
2022-10-09T03:04:02.476Z,95670.75
2022-10-09T03:07:11.302Z,95669.44
2022-10-09T03:10:20.170Z,95668.56
2022-10-09T03:13:28.760Z,95663.28
2022-10-09T03:16:36.999Z,95664.28
2022-10-09T03:19:46.805Z,95661.31
2022-10-09T03:22:55.240Z,95663.28
2022-10-09T03:26:06.715Z,95655.69
2022-10-09T03:29:15.271Z,95659.66
2022-10-09T03:32:23.783Z,95657.16
2022-10-09T03:35:33.475Z,95647.75
2022-10-09T03:38:41.933Z,95652.38
2022-10-09T03:41:50.333Z,95649.88
2022-10-09T03:45:04.049Z,95653.06
2022-10-09T03:48:14.337Z,95651.06
2022-10-09T03:51:24.095Z,95651.56
2022-10-09T03:54:32.279Z,95653.00
2022-10-09T03:57:41.100Z,95653.34
2022-10-09T04:00:52.284Z,95653.28
2022-10-09T04:04:00.873Z,95657.41
2022-10-09T04:07:10.385Z,95651.97
2022-10-09T04:10:19.241Z,95654.63
2022-10-09T04:13:28.191Z,95651.97
2022-10-09T04:16:36.768Z,95644.69
2022-10-09T04:19:45.013Z,95646.03
2022-10-09T04:22:54.801Z,95643.34
2022-10-09T04:26:03.337Z,95641.66
2022-10-09T04:29:12.420Z,95645.31
2022-10-09T04:32:20.834Z,95639.31
2022-10-09T04:35:29.252Z,95643.00
2022-10-09T04:38:39.560Z,95639.97
2022-10-09T04:41:48.006Z,95636.34
2022-10-09T04:44:56.435Z,95648.41
2022-10-09T04:48:04.610Z,95644.97
2022-10-09T04:51:14.171Z,95634.38
2022-10-09T04:54:24.165Z,95635.66
2022-10-09T04:57:32.634Z,95639.63
2022-10-09T05:00:42.830Z,95633.88
2022-10-09T05:03:52.602Z,95633.03
2022-10-09T05:07:01.364Z,95629.56
2022-10-09T05:10:12.001Z,95618.81
2022-10-09T05:13:20.445Z,95618.00
2022-10-09T05:16:31.644Z,95618.69
2022-10-09T05:19:40.207Z,95624.66
2022-10-09T05:22:49.805Z,95622.84
2022-10-09T05:26:02.423Z,95613.41
2022-10-09T05:29:10.868Z,95614.56
2022-10-09T05:32:19.172Z,95612.75
2022-10-09T05:35:30.143Z,95616.78
2022-10-09T05:38:38.576Z,95624.06
2022-10-09T05:41:48.702Z,95622.94
2022-10-09T05:44:57.467Z,95620.28
2022-10-09T05:48:05.868Z,95611.69
2022-10-09T05:51:17.191Z,95610.34
2022-10-09T05:54:25.683Z,95613.84
2022-10-09T05:57:35.596Z,95610.03
2022-10-09T06:00:44.437Z,95612.84
2022-10-09T06:03:55.574Z,95614.19
2022-10-09T06:07:04.224Z,95614.66
2022-10-09T06:10:14.181Z,95616.47
2022-10-09T06:13:24.189Z,95617.81
2022-10-09T06:16:39.459Z,95605.22
2022-10-09T06:19:49.288Z,95611.81
2022-10-09T06:22:57.798Z,95617.91
2022-10-09T06:26:09.620Z,95614.25
2022-10-09T06:29:23.218Z,95618.41
2022-10-09T06:32:31.646Z,95623.34
2022-10-09T06:35:40.198Z,95622.47
2022-10-09T06:38:49.829Z,95626.25
2022-10-09T06:41:58.061Z,95638.28
2022-10-09T06:45:22.820Z,95637.91
2022-10-09T06:48:32.744Z,95632.63
2022-10-09T06:51:41.510Z,95637.63
2022-10-09T06:54:49.846Z,95640.78
2022-10-09T06:57:58.774Z,95649.31
2022-10-09T07:01:11.776Z,95647.53
2022-10-09T07:04:21.651Z,95647.47
2022-10-09T07:07:30.062Z,95647.44
2022-10-09T07:10:38.280Z,95645.09
2022-10-09T07:13:48.424Z,95641.88
2022-10-09T07:16:58.530Z,95635.84
2022-10-09T07:20:07.757Z,95633.59
2022-10-09T07:23:37.754Z,95632.66
2022-10-09T07:26:48.191Z,95636.69
2022-10-09T07:29:56.533Z,95639.66
2022-10-09T07:33:06.118Z,95638.50
2022-10-09T07:36:14.366Z,95636.84
2022-10-09T07:39:22.850Z,95643.31
2022-10-09T07:42:31.140Z,95638.47
2022-10-09T07:45:39.535Z,95635.50
2022-10-09T07:48:50.779Z,95633.88
2022-10-09T07:51:59.149Z,95633.59
2022-10-09T07:55:08.345Z,95629.31
2022-10-09T07:58:18.704Z,95641.47
2022-10-09T08:01:28.811Z,95637.63
2022-10-09T08:04:39.619Z,95639.34
2022-10-09T08:07:48.037Z,95639.25
2022-10-09T08:10:56.586Z,95627.75
2022-10-09T08:14:05.141Z,95635.47
2022-10-09T08:17:13.525Z,95623.69
2022-10-09T08:20:23.181Z,95632.06
2022-10-09T08:23:31.548Z,95625.59
2022-10-09T08:26:40.099Z,95629.19
2022-10-09T08:29:48.361Z,95631.56
2022-10-09T08:32:56.671Z,95628.44
2022-10-09T08:36:10.745Z,95628.66
2022-10-09T08:39:19.034Z,95632.00
2022-10-09T08:42:38.847Z,95627.84
2022-10-09T08:45:50.028Z,95626.16
2022-10-09T08:49:04.948Z,95621.91
2022-10-09T08:52:29.835Z,95622.78
2022-10-09T08:55:47.730Z,95612.38
2022-10-09T08:58:59.378Z,95615.34
2022-10-09T09:02:44.974Z,95607.38
2022-10-09T09:06:04.643Z,95610.72
2022-10-09T09:09:38.298Z,95614.50
2022-10-09T09:13:01.461Z,95603.47
2022-10-09T09:16:22.845Z,95602.69
2022-10-09T09:20:08.082Z,95599.69
2022-10-09T09:23:18.400Z,95588.38
2022-10-09T09:26:30.529Z,95595.81
2022-10-09T09:29:46.366Z,95589.66
2022-10-09T09:33:09.622Z,95590.38
2022-10-09T09:36:25.681Z,95596.59
2022-10-09T09:43:17.924Z,95587.75
2022-10-09T09:46:33.450Z,95589.72
2022-10-09T09:49:56.009Z,95587.69
2022-10-09T09:53:14.172Z,95587.91
2022-10-09T09:56:47.802Z,95581.53
2022-10-09T10:00:21.766Z,95575.97
2022-10-09T10:03:31.539Z,95566.34
2022-10-09T10:06:46.388Z,95574.13
2022-10-09T10:10:08.309Z,95571.06
2022-10-09T10:13:23.788Z,95571.13
2022-10-09T10:17:02.665Z,95563.41
2022-10-09T10:20:32.308Z,95562.97
2022-10-09T10:23:45.690Z,95560.16
2022-10-09T10:27:14.022Z,95560.25
2022-10-09T10:30:24.216Z,95553.00
2022-10-09T10:33:42.293Z,95547.28
2022-10-09T10:37:05.308Z,95554.13
2022-10-09T10:40:26.751Z,95552.63
2022-10-09T10:43:45.489Z,95546.34
2022-10-09T10:47:02.789Z,95541.84
2022-10-09T10:50:17.196Z,95538.97
2022-10-09T10:53:52.326Z,95550.88
2022-10-09T10:57:15.245Z,95529.72
2022-10-09T11:00:24.191Z,95534.88
2022-10-09T11:03:54.341Z,95522.47
2022-10-09T11:07:20.365Z,95528.28
2022-10-09T11:10:41.765Z,95522.28
2022-10-09T11:14:08.271Z,95517.34
2022-10-09T11:17:32.096Z,95514.88
2022-10-09T11:21:05.353Z,95511.53
2022-10-09T11:24:37.249Z,95510.31
2022-10-09T11:27:53.632Z,95503.56
2022-10-09T11:31:15.066Z,95507.09
2022-10-09T11:34:33.452Z,95493.25
2022-10-09T11:37:48.053Z,95500.06
2022-10-09T11:41:02.684Z,95489.16
2022-10-09T11:44:32.750Z,95481.13
2022-10-09T11:47:52.523Z,95483.13
2022-10-09T11:51:10.492Z,95478.56
2022-10-09T11:54:24.009Z,95467.44
2022-10-09T11:57:35.161Z,95471.78
2022-10-09T12:00:44.261Z,95465.56
2022-10-09T12:04:04.282Z,95455.44
2022-10-09T12:07:13.467Z,95458.44
2022-10-09T12:10:32.574Z,95464.97
2022-10-09T12:13:53.318Z,95452.84
2022-10-09T12:17:02.809Z,95457.47
2022-10-09T12:20:24.799Z,95454.41
2022-10-09T12:23:37.116Z,95452.50
2022-10-09T12:26:47.119Z,95448.59
2022-10-09T12:30:00.886Z,95439.34
2022-10-09T12:33:23.588Z,95442.81
2022-10-09T12:36:33.603Z,95433.03
2022-10-09T12:39:42.692Z,95429.06
2022-10-09T12:42:53.870Z,95428.56
2022-10-09T12:46:04.527Z,95418.28
2022-10-09T12:49:22.598Z,95421.06
2022-10-09T12:52:33.500Z,95424.47
2022-10-09T12:55:46.747Z,95411.19
2022-10-09T12:58:57.063Z,95408.84
2022-10-09T13:02:12.470Z,95409.28
2022-10-09T13:05:20.967Z,95401.50
2022-10-09T13:08:33.991Z,95401.81
2022-10-09T13:11:45.881Z,95395.84
2022-10-09T13:14:57.337Z,95399.03
2022-10-09T13:18:23.805Z,95395.47
2022-10-09T13:21:35.302Z,95394.41
2022-10-09T13:24:43.942Z,95393.78
2022-10-09T13:27:52.751Z,95396.31
2022-10-09T13:31:08.711Z,95395.00
2022-10-09T13:34:18.893Z,95394.59
2022-10-09T13:37:28.511Z,95392.28
2022-10-09T13:40:37.019Z,95387.50
2022-10-09T13:43:45.655Z,95386.94
2022-10-09T13:46:54.087Z,95382.63
2022-10-09T13:50:04.420Z,95381.84
2022-10-09T13:53:13.377Z,95380.44
2022-10-09T13:56:22.015Z,95371.13
2022-10-09T13:59:31.693Z,95374.19
2022-10-09T14:02:40.386Z,95378.09
2022-10-09T14:05:50.248Z,95368.44
2022-10-09T14:08:58.400Z,95371.94
2022-10-09T14:12:07.115Z,95364.75
2022-10-09T14:15:15.673Z,95369.09
2022-10-09T14:18:24.002Z,95362.13
2022-10-09T14:21:34.946Z,95354.75
2022-10-09T14:24:43.570Z,95344.31
2022-10-09T14:27:52.049Z,95340.66
2022-10-09T14:31:01.134Z,95339.22
2022-10-09T14:34:11.571Z,95334.25
2022-10-09T14:37:39.897Z,95348.66
2022-10-09T14:40:49.937Z,95331.41
2022-10-09T14:44:00.907Z,95330.56
2022-10-09T14:47:09.402Z,95316.56
2022-10-09T14:50:18.531Z,95321.09
2022-10-09T14:53:28.664Z,95318.22
2022-10-09T14:56:37.542Z,95305.47
2022-10-09T14:59:45.879Z,95300.53
2022-10-09T15:02:56.393Z,95298.47
2022-10-09T15:06:37.588Z,95310.38
2022-10-09T15:09:47.225Z,95306.31
2022-10-09T15:12:55.469Z,95305.06
2022-10-09T15:16:07.125Z,95306.50
2022-10-09T15:19:15.339Z,95302.19
2022-10-09T15:22:24.186Z,95294.97
2022-10-09T15:25:33.783Z,95295.59
2022-10-09T15:28:44.872Z,95284.50
2022-10-09T15:31:53.185Z,95296.63
2022-10-09T15:35:01.477Z,95296.41
2022-10-09T15:38:15.175Z,95294.75
2022-10-09T15:41:28.008Z,95286.94
2022-10-09T15:44:36.262Z,95283.66
2022-10-09T15:47:51.747Z,95274.25
2022-10-09T15:51:06.945Z,95265.59
2022-10-09T15:54:15.489Z,95271.38
2022-10-09T15:57:25.285Z,95261.50
2022-10-09T16:00:37.940Z,95266.63
2022-10-09T16:03:46.547Z,95264.59
2022-10-09T16:06:54.882Z,95262.13
2022-10-09T16:10:03.509Z,95268.47
2022-10-09T16:13:13.178Z,95264.59
2022-10-09T16:16:26.273Z,95267.84
2022-10-09T16:19:34.781Z,95260.25
2022-10-09T16:22:44.204Z,95251.41
2022-10-09T16:26:00.083Z,95258.59
2022-10-09T16:29:10.288Z,95264.56
2022-10-09T16:32:18.578Z,95256.94
2022-10-09T16:35:27.120Z,95256.13
2022-10-09T16:38:35.696Z,95250.59
2022-10-09T16:41:44.184Z,95246.66
2022-10-09T16:44:54.025Z,95248.09
2022-10-09T16:48:02.260Z,95243.75
2022-10-09T16:51:12.984Z,95240.88
2022-10-09T16:54:21.521Z,95243.72
2022-10-09T16:57:30.101Z,95231.09
2022-10-09T17:00:40.284Z,95239.06
2022-10-09T17:03:49.132Z,95234.13
2022-10-09T17:06:57.878Z,95242.72
2022-10-09T17:10:07.760Z,95239.38
2022-10-09T17:13:16.454Z,95237.72
2022-10-09T17:16:30.237Z,95234.56
2022-10-09T17:19:41.869Z,95236.16
2022-10-09T17:22:50.936Z,95232.59
2022-10-09T17:26:00.612Z,95230.09
2022-10-09T17:29:09.145Z,95237.47
2022-10-09T17:32:19.455Z,95240.28
2022-10-09T17:35:28.008Z,95238.81
2022-10-09T17:38:36.596Z,95239.44
2022-10-09T17:41:48.462Z,95235.19
2022-10-09T17:44:57.064Z,95227.28
2022-10-09T17:48:08.012Z,95234.75
2022-10-09T17:51:19.400Z,95231.78
2022-10-09T17:54:27.659Z,95238.06
2022-10-09T17:57:36.931Z,95224.25
2022-10-09T18:00:46.358Z,95232.44
2022-10-09T18:03:56.437Z,95223.81
2022-10-09T18:07:06.791Z,95230.09
2022-10-09T18:10:16.912Z,95224.25
2022-10-09T18:13:25.546Z,95219.72
2022-10-09T18:16:37.896Z,95231.53
2022-10-09T18:19:48.009Z,95224.94
2022-10-09T18:22:56.567Z,95219.31
2022-10-09T18:26:09.739Z,95221.69
2022-10-09T18:29:18.280Z,95212.16
2022-10-09T18:32:26.699Z,95201.38
2022-10-09T18:35:39.246Z,95206.69
2022-10-09T18:38:50.386Z,95208.81
2022-10-09T18:42:01.756Z,95200.13
2022-10-09T18:45:14.576Z,95203.75
2022-10-09T18:48:24.430Z,95206.50
2022-10-09T18:51:34.696Z,95210.06
2022-10-09T18:54:48.922Z,95209.19
2022-10-09T18:57:59.789Z,95196.75
2022-10-09T19:01:08.942Z,95194.09
2022-10-09T19:04:18.943Z,95196.63
2022-10-09T19:07:29.177Z,95195.66
2022-10-09T19:10:37.982Z,95195.38
2022-10-09T19:13:46.683Z,95195.81
2022-10-09T19:16:55.070Z,95201.97
2022-10-09T19:20:03.336Z,95194.81
2022-10-09T19:23:15.417Z,95200.59
2022-10-09T19:26:24.909Z,95189.25
2022-10-09T19:29:33.809Z,95188.78
2022-10-09T19:32:42.759Z,95192.53
2022-10-09T19:35:54.747Z,95181.06
2022-10-09T19:39:06.828Z,95184.47
2022-10-09T19:42:16.260Z,95182.47
2022-10-09T19:45:24.606Z,95168.63
2022-10-09T19:48:38.091Z,95170.28
2022-10-09T19:51:46.848Z,95175.25
2022-10-09T19:54:57.321Z,95170.03
2022-10-09T19:58:09.440Z,95171.28
2022-10-09T20:01:21.462Z,95168.19
2022-10-09T20:04:30.074Z,95171.47
2022-10-09T20:07:38.591Z,95168.19
2022-10-09T20:10:49.107Z,95161.81
2022-10-09T20:13:57.436Z,95172.97
2022-10-09T20:17:06.464Z,95162.06
2022-10-09T20:20:15.527Z,95171.41
2022-10-09T20:23:24.240Z,95159.97
2022-10-09T20:26:42.823Z,95165.53
2022-10-09T20:29:53.792Z,95162.88
2022-10-09T20:33:03.673Z,95157.88
2022-10-09T20:36:22.153Z,95165.91
2022-10-09T20:39:31.280Z,95163.03
2022-10-09T20:42:41.877Z,95153.66
2022-10-09T20:45:50.397Z,95164.59
2022-10-09T20:48:58.897Z,95152.50
2022-10-09T20:52:07.309Z,95155.38
2022-10-09T20:55:15.936Z,95154.25
2022-10-09T20:58:25.968Z,95149.88
2022-10-09T21:01:36.871Z,95149.66
2022-10-09T21:04:47.128Z,95146.19
2022-10-09T21:07:55.571Z,95147.34
2022-10-09T21:11:08.049Z,95151.69
2022-10-09T21:14:18.543Z,95147.50
2022-10-09T21:17:27.431Z,95148.84
2022-10-09T21:20:39.387Z,95154.78
2022-10-09T21:23:51.473Z,95150.94
2022-10-09T21:26:59.896Z,95144.97
2022-10-09T21:30:11.972Z,95148.31
2022-10-09T21:33:21.518Z,95142.50
2022-10-09T21:36:56.223Z,95144.84
2022-10-09T21:40:11.257Z,95144.66
2022-10-09T21:43:20.240Z,95145.13
2022-10-09T21:46:31.041Z,95143.91
2022-10-09T21:49:41.464Z,95142.13
2022-10-09T21:52:50.389Z,95143.19
2022-10-09T21:55:59.058Z,95139.53
2022-10-09T21:59:07.287Z,95137.22
2022-10-09T22:02:17.684Z,95140.25
2022-10-09T22:05:26.224Z,95138.78
2022-10-09T22:08:35.341Z,95140.59
2022-10-09T22:11:44.693Z,95145.06
2022-10-09T22:14:53.236Z,95142.25
2022-10-09T22:18:03.574Z,95145.88
2022-10-09T22:21:15.743Z,95144.44
2022-10-09T22:24:28.988Z,95148.41
2022-10-09T22:27:38.002Z,95148.41
2022-10-09T22:30:47.502Z,95142.00
2022-10-09T22:33:59.986Z,95143.66
2022-10-09T22:40:27.906Z,95154.25
2022-10-09T22:43:37.242Z,95139.03
2022-10-09T22:46:46.744Z,95137.16
2022-10-09T22:49:57.375Z,95139.28
2022-10-09T22:53:05.517Z,95147.63
2022-10-09T22:56:17.986Z,95140.75
2022-10-09T22:59:26.155Z,95146.50
2022-10-09T23:02:34.322Z,95152.72
2022-10-09T23:05:45.322Z,95144.22
2022-10-09T23:08:54.626Z,95145.59
2022-10-09T23:12:02.831Z,95149.09
2022-10-09T23:15:11.894Z,95141.09
2022-10-09T23:18:20.116Z,95137.34
2022-10-09T23:21:29.733Z,95150.53
2022-10-09T23:24:38.112Z,95147.81
2022-10-09T23:27:46.276Z,95151.22
2022-10-09T23:30:54.729Z,95161.91
2022-10-09T23:34:04.937Z,95153.44
2022-10-09T23:37:14.475Z,95149.16
2022-10-09T23:40:23.368Z,95151.34
2022-10-09T23:43:33.416Z,95151.53
2022-10-09T23:46:41.905Z,95148.13
2022-10-09T23:49:50.309Z,95149.41
2022-10-09T23:53:00.094Z,95151.31
2022-10-09T23:56:19.058Z,95150.97
2022-10-09T23:59:27.230Z,95155.34
